Time;durP1;ratioP1;P1;durP2;ratioP2;P2;SDS_P1;SDS_P2;PMS_P1;PMS_P2;Temp;Humidity;BMP_temperature;BMP_pressure;BME280_temperature;BME280_humidity;BME280_pressure;Samples;Min_cycle;Max_cycle;Signal;HPM_P1;HPM_P2
2022/10/05 00:01:43;;;;;;;9.85;2.10;;;;;;;8.33;100.00;101001.99;1743497;81;20939;-39
2022/10/05 00:04:20;;;;;;;2.52;2.08;;;;;;;8.29;100.00;101006.73;1728221;81;21533;-38
2022/10/05 00:07:03;;;;;;;3.45;2.10;;;;;;;8.26;100.00;101008.02;1715063;81;20980;-38
2022/10/05 00:09:31;;;;;;;3.77;2.08;;;;;;;8.27;100.00;101011.03;1687742;81;21042;-39
2022/10/05 00:11:58;;;;;;;2.58;2.17;;;;;;;8.29;100.00;101026.08;1713171;81;21004;-39
2022/10/05 00:14:30;;;;;;;2.12;1.92;;;;;;;8.31;100.00;101024.77;1705263;81;21490;-39
2022/10/05 00:16:56;;;;;;;4.87;1.95;;;;;;;8.29;100.00;101020.91;1743514;81;20972;-39
2022/10/05 00:19:31;;;;;;;3.67;2.22;;;;;;;8.24;100.00;101021.34;1715861;81;21862;-39
2022/10/05 00:22:01;;;;;;;4.70;1.62;;;;;;;8.23;100.00;101031.23;1735951;82;21506;-39
2022/10/05 00:24:28;;;;;;;2.87;1.77;;;;;;;8.22;100.00;101029.52;1728671;82;21029;-39
2022/10/05 00:26:54;;;;;;;1.98;1.87;;;;;;;8.19;100.00;101033.36;1735308;81;21711;-38
2022/10/05 00:29:22;;;;;;;2.30;2.10;;;;;;;8.17;100.00;101030.80;1705338;83;21024;-38
2022/10/05 00:31:50;;;;;;;3.40;2.00;;;;;;;8.19;100.00;101032.07;1708656;83;21227;-39
2022/10/05 00:34:17;;;;;;;2.05;1.92;;;;;;;8.19;100.00;101035.94;1709052;82;20992;-39
2022/10/05 00:36:45;;;;;;;2.22;2.00;;;;;;;8.17;100.00;101034.66;1743668;80;21063;-39
2022/10/05 00:39:13;;;;;;;2.25;2.00;;;;;;;8.15;100.00;101041.95;1702788;82;20929;-39
2022/10/05 00:42:00;;;;;;;4.35;2.02;;;;;;;8.12;100.00;101031.64;1735948;81;20996;-39
2022/10/05 00:44:42;;;;;;;2.33;2.15;;;;;;;8.09;100.00;101039.38;1677881;82;21893;-40
2022/10/05 00:47:17;;;;;;;2.20;2.00;;;;;;;8.03;100.00;101043.67;1722695;82;21432;-39
2022/10/05 00:50:10;;;;;;;3.07;1.80;;;;;;;8.00;100.00;101047.55;1727817;82;20909;-38
2022/10/05 00:52:58;;;;;;;2.58;1.80;;;;;;;7.97;100.00;101053.11;1709453;82;20932;-39
2022/10/05 00:55:43;;;;;;;2.10;1.95;;;;;;;7.96;100.00;101054.84;1720192;82;20995;-39
2022/10/05 00:58:18;;;;;;;2.50;1.95;;;;;;;7.97;100.00;101059.55;1686846;82;21171;-38
2022/10/05 01:01:10;;;;;;;4.65;2.12;;;;;;;7.97;100.00;101052.70;1713878;82;20977;-39
2022/10/05 01:03:58;;;;;;;2.37;2.17;;;;;;;8.02;100.00;101065.58;1722437;82;20972;-39
2022/10/05 01:06:52;;;;;;;4.00;2.58;;;;;;;8.02;100.00;101072.89;1724882;82;21483;-38
2022/10/05 01:10:07;;;;;;;4.47;2.30;;;;;;;8.03;100.00;101068.58;1725796;82;21020;-39
2022/10/05 01:12:45;;;;;;;2.22;2.12;;;;;;;8.04;100.00;101076.75;1726082;82;21262;-39
2022/10/05 01:15:33;;;;;;;2.20;2.00;;;;;;;8.04;100.00;101076.34;1681626;82;20956;-38
2022/10/05 01:18:14;;;;;;;2.67;1.90;;;;;;;8.07;100.00;101074.62;1711208;83;21020;-39
2022/10/05 01:21:02;;;;;;;3.33;1.82;;;;;;;8.07;100.00;101078.04;1709495;83;20916;-39
2022/10/05 01:23:50;;;;;;;2.58;1.90;;;;;;;8.09;100.00;101078.06;1710706;82;20908;-39
2022/10/05 01:26:44;;;;;;;3.15;2.27;;;;;;;8.12;100.00;101085.80;1732700;82;21260;-38
2022/10/05 01:29:22;;;;;;;2.05;1.82;;;;;;;8.14;100.00;101078.92;1719745;82;21663;-39
2022/10/05 01:31:59;;;;;;;3.35;1.80;;;;;;;8.13;100.00;101082.36;1681599;82;20895;-38
2022/10/05 01:34:56;;;;;;;4.75;1.90;;;;;;;8.16;100.00;101082.36;1725190;82;20947;-39
2022/10/05 01:38:00;;;;;;;4.90;2.00;;;;;;;8.18;100.00;101084.52;1716977;82;20984;-38
2022/10/05 01:40:52;;;;;;;2.12;1.90;;;;;;;8.19;100.00;101089.69;1723455;82;21260;-39
2022/10/05 01:43:30;;;;;;;2.67;2.08;;;;;;;8.24;100.00;101089.70;1695561;82;20905;-38
2022/10/05 01:46:32;;;;;;;1.80;1.70;;;;;;;8.27;100.00;101090.98;1718728;82;20968;-38
2022/10/05 01:49:16;;;;;;;5.90;1.65;;;;;;;8.25;100.00;101099.16;1732979;82;20895;-38
2022/10/05 01:52:12;;;;;;;9.88;2.00;;;;;;;8.28;100.00;101101.73;1730937;82;20897;-38
2022/10/05 01:55:02;;;;;;;3.20;2.30;;;;;;;8.31;100.00;101109.89;1735586;82;21162;-39
2022/10/05 01:58:02;;;;;;;1.80;1.67;;;;;;;8.32;100.00;101111.20;1735797;82;21040;-38
2022/10/05 02:00:29;;;;;;;4.37;1.90;;;;;;;8.32;100.00;101117.64;1722815;82;20996;-39
2022/10/05 02:03:19;;;;;;;2.30;2.20;;;;;;;8.31;100.00;101117.22;1724017;82;20944;-39
2022/10/05 02:05:55;;;;;;;4.05;2.08;;;;;;;8.32;100.00;101116.36;1700319;82;20889;-39
2022/10/05 02:08:37;;;;;;;1.90;1.80;;;;;;;8.38;100.00;101118.09;1726171;82;21908;-38
2022/10/05 02:11:10;;;;;;;2.08;1.80;;;;;;;8.43;100.00;101118.08;1708963;82;21506;-39
2022/10/05 02:13:43;;;;;;;2.05;1.95;;;;;;;8.45;100.00;101121.10;1725125;82;21545;-38
2022/10/05 02:16:34;;;;;;;1.98;1.80;;;;;;;8.51;100.00;101125.45;1722618;82;20951;-39
2022/10/05 02:19:20;;;;;;;1.70;1.60;;;;;;;8.52;100.00;101123.72;1723156;82;20992;-39
2022/10/05 02:21:51;;;;;;;8.43;1.67;;;;;;;8.53;100.00;101136.62;1727474;82;21763;-39
2022/10/05 02:24:22;;;;;;;2.90;1.82;;;;;;;8.53;100.00;101139.21;1723251;82;21506;-39
2022/10/05 02:26:50;;;;;;;3.20;1.85;;;;;;;8.55;100.00;101141.77;1719590;82;21014;-39
2022/10/05 02:29:20;;;;;;;3.95;1.60;;;;;;;8.57;100.00;101146.09;1721241;82;20995;-39
2022/10/05 02:31:53;;;;;;;3.33;1.50;;;;;;;8.58;100.00;101143.94;1729687;82;20932;-39
2022/10/05 02:34:36;;;;;;;3.70;1.82;;;;;;;8.60;100.00;101149.12;1720365;82;21169;-38
2022/10/05 02:37:42;;;;;;;2.30;1.97;;;;;;;8.63;100.00;101152.98;1720437;82;20965;-39
2022/10/05 02:42:40;;;;;;;4.03;1.70;;;;;;;8.72;100.00;101143.10;1816133;79;22648;-38
2022/10/05 02:45:33;;;;;;;1.87;1.77;;;;;;;8.69;100.00;101154.27;1789299;80;20990;-38
2022/10/05 02:48:11;;;;;;;1.87;1.70;;;;;;;8.67;100.00;101160.28;1758635;80;21277;-37
2022/10/05 02:51:04;;;;;;;2.72;1.60;;;;;;;8.61;100.00;101173.62;1789182;80;20873;-39
2022/10/05 02:53:39;;;;;;;3.62;1.50;;;;;;;8.54;100.00;101177.06;1789195;80;21002;-39
2022/10/05 02:56:16;;;;;;;1.62;1.52;;;;;;;8.46;100.00;101183.45;1789336;80;20995;-39
2022/10/05 02:59:01;;;;;;;4.08;1.70;;;;;;;8.41;100.00;101183.88;1789498;80;20934;-37
2022/10/05 03:01:51;;;;;;;2.27;1.90;;;;;;;8.41;100.00;101189.45;1789296;80;21176;-38
2022/10/05 03:04:55;;;;;;;1.90;1.80;;;;;;;8.38;100.00;101185.59;1768481;80;20931;-39
2022/10/05 03:07:40;;;;;;;3.00;1.92;;;;;;;8.37;100.00;101181.28;1789297;80;20991;-37
2022/10/05 03:10:28;;;;;;;6.05;2.10;;;;;;;8.31;100.00;101190.73;1789449;80;20908;-38
2022/10/05 03:13:25;;;;;;;3.58;2.20;;;;;;;8.28;100.00;101186.86;1789200;80;21035;-37
2022/10/05 03:16:39;;;;;;;4.25;2.15;;;;;;;8.24;100.00;101191.58;1788295;80;21072;-38
2022/10/05 03:19:36;;;;;;;4.58;1.85;;;;;;;8.20;100.00;101188.12;1735301;80;21537;-38
2022/10/05 03:22:21;;;;;;;2.42;2.02;;;;;;;8.21;100.00;101191.58;1789016;80;20888;-37
2022/10/05 03:25:22;;;;;;;2.00;1.50;;;;;;;8.18;100.00;101200.16;1767848;80;20979;-38
2022/10/05 03:27:55;;;;;;;2.20;2.00;;;;;;;8.19;100.00;101204.87;1698112;83;21445;-38
2022/10/05 03:30:24;;;;;;;2.15;1.95;;;;;;;8.18;100.00;101205.73;1726090;83;22088;-38
2022/10/05 03:33:04;;;;;;;2.05;1.95;;;;;;;8.17;100.00;101206.58;1726778;83;21049;-38
2022/10/05 03:35:50;;;;;;;2.67;2.12;;;;;;;8.17;100.00;101207.88;1720551;83;21525;-38
2022/10/05 03:38:29;;;;;;;2.85;2.37;;;;;;;8.19;100.00;101220.34;1692754;83;21490;-38
2022/10/05 03:41:18;;;;;;;5.28;1.75;;;;;;;8.22;100.00;101213.05;1716317;83;21032;-38
2022/10/05 03:44:12;;;;;;;2.20;2.10;;;;;;;8.23;100.00;101223.39;1705721;84;22146;-38
2022/10/05 03:47:04;;;;;;;2.10;1.98;;;;;;;8.29;100.00;101224.70;1686147;84;20997;-39
2022/10/05 03:49:48;;;;;;;1.95;1.85;;;;;;;8.32;100.00;101221.25;1705740;84;21044;-38
2022/10/05 03:52:27;;;;;;;3.87;2.12;;;;;;;8.36;100.00;101226.00;1705669;83;20952;-39
2022/10/05 03:55:05;;;;;;;3.40;2.00;;;;;;;8.39;100.00;101228.59;1695390;84;20957;-37
2022/10/05 03:57:35;;;;;;;2.85;1.98;;;;;;;8.42;100.00;101231.17;1705413;84;21212;-38
2022/10/05 04:00:18;;;;;;;4.83;2.25;;;;;;;8.47;100.00;101239.36;1705531;84;20992;-38
2022/10/05 04:02:59;;;;;;;2.62;2.27;;;;;;;8.50;100.00;101240.27;1705085;84;20910;-38
2022/10/05 04:05:39;;;;;;;3.08;2.08;;;;;;;8.54;100.00;101246.73;1705328;84;20873;-37
2022/10/05 04:08:23;;;;;;;2.47;1.70;;;;;;;8.59;100.00;101246.75;1684843;84;20901;-39
2022/10/05 04:10:53;;;;;;;2.50;2.30;;;;;;;8.60;100.00;101246.74;1704597;84;21044;-38
2022/10/05 04:13:41;;;;;;;4.37;2.20;;;;;;;8.62;100.00;101244.18;1705180;84;20980;-39
2022/10/05 04:16:16;;;;;;;2.20;2.00;;;;;;;8.63;100.00;101241.58;1685597;84;20993;-38
2022/10/05 04:19:14;;;;;;;4.40;2.25;;;;;;;8.65;100.00;101242.02;1685673;84;20969;-39
2022/10/05 04:21:59;;;;;;;2.12;2.00;;;;;;;8.68;100.00;101249.76;1704825;84;21531;-37
2022/10/05 04:25:07;;;;;;;2.12;1.92;;;;;;;8.68;100.00;101250.64;1704723;84;21259;-38
2022/10/05 04:27:40;;;;;;;3.62;2.10;;;;;;;8.69;100.00;101246.32;1685061;84;20942;-39
2022/10/05 04:30:18;;;;;;;4.92;2.47;;;;;;;8.69;100.00;101253.65;1705427;84;21399;-39
2022/10/05 04:32:54;;;;;;;8.20;2.52;;;;;;;8.68;100.00;101258.38;1705605;84;21005;-38
2022/10/05 04:35:46;;;;;;;2.60;2.40;;;;;;;8.68;100.00;101254.92;1705204;84;20969;-39
2022/10/05 04:38:44;;;;;;;2.17;1.98;;;;;;;8.67;100.00;101260.95;1705423;83;21252;-38
2022/10/05 04:41:35;;;;;;;2.67;2.47;;;;;;;8.68;100.00;101260.08;1708262;83;21019;-39
2022/10/05 04:44:26;;;;;;;2.33;2.12;;;;;;;8.72;100.00;101259.27;1724178;83;20970;-38
2022/10/05 04:47:08;;;;;;;4.87;2.50;;;;;;;8.75;100.00;101267.85;1697252;83;20896;-39
2022/10/05 04:50:00;;;;;;;4.70;2.37;;;;;;;8.79;100.00;101263.56;1724508;83;20935;-38
2022/10/05 04:52:52;;;;;;;2.60;2.37;;;;;;;8.81;100.00;101261.84;1723852;83;21162;-38
2022/10/05 04:55:52;;;;;;;5.87;3.65;;;;;;;8.84;100.00;101256.69;1723693;83;20915;-39
2022/10/05 04:58:36;;;;;;;2.90;2.70;;;;;;;8.88;100.00;101261.44;1723940;83;20979;-38
2022/10/05 05:01:27;;;;;;;3.70;2.65;;;;;;;8.93;100.00;101266.59;1700715;83;20915;-38
2022/10/05 05:04:40;;;;;;;4.33;2.70;;;;;;;8.98;100.00;101260.58;1723928;83;20960;-38
2022/10/05 05:07:21;;;;;;;5.53;3.10;;;;;;;9.07;100.00;101262.31;1704047;84;21145;-38
2022/10/05 05:10:32;;;;;;;6.65;2.83;;;;;;;9.19;100.00;101266.63;1703789;84;21002;-39
2022/10/05 05:13:36;;;;;;;8.90;2.85;;;;;;;9.27;100.00;101268.77;1704169;84;20966;-39
2022/10/05 05:16:35;;;;;;;5.22;3.42;;;;;;;9.38;100.00;101266.18;1703902;83;21572;-38
2022/10/05 05:19:24;;;;;;;4.25;3.05;;;;;;;9.48;100.00;101269.20;1724220;83;20999;-39
2022/10/05 05:22:02;;;;;;;3.42;3.10;;;;;;;9.59;100.00;101267.03;1723812;83;21318;-39
2022/10/05 05:24:40;;;;;;;3.47;2.42;;;;;;;9.65;100.00;101274.77;1724193;83;20936;-38
2022/10/05 05:27:27;;;;;;;5.85;2.80;;;;;;;9.71;100.00;101277.78;1712739;83;20900;-39
2022/10/05 05:30:23;;;;;;;2.80;2.60;;;;;;;9.80;100.00;101279.05;1707992;84;20993;-37
2022/10/05 05:33:21;;;;;;;5.00;2.52;;;;;;;9.88;100.00;101280.33;1674117;83;20899;-38
2022/10/05 05:36:20;;;;;;;6.78;2.87;;;;;;;9.95;100.00;101285.91;1697368;83;21176;-39
2022/10/05 05:39:30;;;;;;;10.08;2.77;;;;;;;10.04;100.00;101289.78;1703632;84;21057;-38
2022/10/05 05:42:10;;;;;;;8.88;3.08;;;;;;;10.11;100.00;101282.00;1701011;84;20970;-39
2022/10/05 05:44:46;;;;;;;3.70;2.92;;;;;;;10.15;100.00;101282.41;1695580;84;20963;-37
2022/10/05 05:47:21;;;;;;;5.10;3.10;;;;;;;10.18;100.00;101287.15;1696000;84;20959;-39
2022/10/05 05:50:29;;;;;;;4.65;3.27;;;;;;;10.25;100.00;101286.70;1695641;83;20967;-37
2022/10/05 05:53:31;;;;;;;4.50;3.35;;;;;;;10.29;100.00;101287.11;1695457;84;21604;-38
2022/10/05 05:56:34;;;;;;;4.30;2.95;;;;;;;10.39;100.00;101290.52;1695626;84;21070;-39
2022/10/05 05:59:14;;;;;;;8.53;2.87;;;;;;;10.51;100.00;101297.83;1695717;84;21528;-38
2022/10/05 06:01:49;;;;;;;8.03;2.60;;;;;;;10.61;100.00;101302.95;1695514;84;21006;-39
2022/10/05 06:04:33;;;;;;;6.50;2.50;;;;;;;10.67;100.00;101307.25;1695827;84;21070;-39
2022/10/05 06:07:01;;;;;;;3.05;2.27;;;;;;;10.69;100.00;101300.75;1695522;84;21053;-38
2022/10/05 06:09:49;;;;;;;2.20;2.00;;;;;;;10.71;100.00;101312.83;1695600;84;20990;-38
2022/10/05 06:12:41;;;;;;;2.75;2.35;;;;;;;10.74;100.00;101313.27;1694843;84;20970;-39
2022/10/05 06:15:42;;;;;;;6.17;2.35;;;;;;;10.83;100.00;101316.20;1694903;84;20978;-39
2022/10/05 06:18:12;;;;;;;4.08;2.02;;;;;;;10.96;100.00;101316.58;1695249;84;21092;-38
2022/10/05 06:20:47;;;;;;;10.48;2.35;;;;;;;11.14;100.00;101325.11;1695761;84;21019;-38
2022/10/05 06:23:40;;;;;;;4.40;1.90;;;;;;;11.28;100.00;101329.73;1695397;84;20947;-38
2022/10/05 06:26:53;;;;;;;3.05;1.90;;;;;;;11.40;100.00;101328.78;1695532;84;21576;-38
2022/10/05 06:29:23;;;;;;;10.55;2.30;;;;;;;11.50;100.00;101333.04;1695754;84;21018;-39
2022/10/05 06:32:03;;;;;;;3.40;1.87;;;;;;;11.62;100.00;101335.09;1695554;84;21364;-39
2022/10/05 06:35:07;;;;;;;6.62;2.10;;;;;;;11.69;100.00;101338.05;1695677;84;21015;-39
2022/10/05 06:38:15;;;;;;;5.65;2.33;;;;;;;11.73;100.00;101351.86;1695668;83;21489;-39
2022/10/05 06:41:27;;;;;;;3.55;2.35;;;;;;;11.73;100.00;101355.75;1695568;84;21037;-39
2022/10/05 06:44:09;;;;;;;3.05;2.15;;;;;;;11.68;100.00;101371.34;1695234;84;20991;-39
2022/10/05 06:47:03;;;;;;;6.00;2.00;;;;;;;11.66;100.00;101370.48;1684557;84;22166;-38
2022/10/05 06:49:59;;;;;;;7.30;1.80;;;;;;;11.66;100.00;101369.65;1638691;87;20948;-38
2022/10/05 06:53:16;;;;;;;2.92;1.92;;;;;;;11.69;100.00;101374.80;1694687;84;20923;-37
2022/10/05 06:56:00;;;;;;;5.42;1.98;;;;;;;11.76;100.00;101378.64;1695630;84;21003;-37
2022/10/05 06:58:52;;;;;;;4.10;1.85;;;;;;;11.91;100.00;101379.36;1695674;84;20939;-38
2022/10/05 07:01:58;;;;;;;5.80;1.92;;;;;;;11.97;100.00;101385.77;1695480;84;21295;-38
2022/10/05 07:04:43;;;;;;;3.58;1.82;;;;;;;12.00;100.00;101388.38;1695514;84;21011;-37
2022/10/05 07:07:32;;;;;;;2.90;1.87;;;;;;;12.01;100.00;101389.25;1695009;84;20990;-38
2022/10/05 07:10:23;;;;;;;6.12;1.95;;;;;;;12.13;100.00;101401.24;1695730;84;21014;-38
2022/10/05 07:13:08;;;;;;;5.37;2.10;;;;;;;12.24;100.00;101401.98;1623636;88;21072;-38
2022/10/05 07:16:04;;;;;;;2.02;1.87;;;;;;;12.30;100.00;101404.96;1624405;88;21293;-38
2022/10/05 07:19:02;;;;;;;3.08;1.75;;;;;;;12.25;100.00;101416.71;1662488;84;21527;-38
2022/10/05 07:21:59;;;;;;;4.70;2.30;;;;;;;12.05;100.00;101420.77;1697637;84;20913;-38
2022/10/05 07:24:36;;;;;;;2.72;1.87;;;;;;;11.96;100.00;101422.13;1693049;84;20984;-38
2022/10/05 07:27:19;;;;;;;7.22;2.15;;;;;;;11.93;100.00;101432.09;1693249;84;20980;-38
2022/10/05 07:30:09;;;;;;;5.10;2.10;;;;;;;11.86;100.00;101439.50;1693191;84;21093;-39
2022/10/05 07:32:46;;;;;;;4.22;1.80;;;;;;;11.84;100.00;101445.14;1693066;83;20949;-39
2022/10/05 07:38:38;;;;;;;3.52;1.77;;;;;;;11.74;100.00;101454.28;1678873;84;20917;-38
2022/10/05 07:41:18;;;;;;;5.83;1.87;;;;;;;11.67;100.00;101456.95;1693664;84;20960;-38
2022/10/05 07:43:56;;;;;;;6.10;2.17;;;;;;;11.53;100.00;101467.41;1711411;83;21168;-38
2022/10/05 07:46:52;;;;;;;7.17;2.45;;;;;;;11.42;100.00;101473.51;1705297;83;20887;-39
2022/10/05 07:49:38;;;;;;;8.13;2.35;;;;;;;11.34;100.00;101478.73;1667200;84;20905;-39
2022/10/05 07:52:35;;;;;;;4.20;2.40;;;;;;;11.28;100.00;101490.88;1692607;84;21401;-39
2022/10/05 07:55:24;;;;;;;2.83;2.17;;;;;;;11.24;100.00;101496.92;1692725;84;21021;-39
2022/10/05 07:58:37;;;;;;;8.70;2.22;;;;;;;11.14;100.00;101485.77;1716478;83;21178;-39
2022/10/05 08:01:18;;;;;;;3.95;2.20;;;;;;;11.11;100.00;101493.52;1715954;83;20932;-39
2022/10/05 08:04:22;;;;;;;2.85;1.98;;;;;;;11.15;100.00;101487.03;1689987;83;20983;-39
2022/10/05 08:07:05;;;;;;;2.52;2.10;;;;;;;11.10;100.00;101492.67;1716178;83;20953;-39
2022/10/05 08:09:53;;;;;;;13.05;2.70;;;;;;;11.12;100.00;101494.83;1716216;83;21021;-39
2022/10/05 08:12:34;;;;;;;7.08;2.15;;;;;;;11.15;100.00;101498.70;1716144;83;22046;-38
2022/10/05 08:15:15;;;;;;;2.40;2.20;;;;;;;11.16;100.00;101500.42;1716472;83;20985;-39
2022/10/05 08:18:01;;;;;;;4.20;2.30;;;;;;;11.18;100.00;101501.27;1716243;83;21067;-39
2022/10/05 08:20:43;;;;;;;6.70;2.37;;;;;;;11.20;100.00;101496.94;1716382;83;20924;-39
2022/10/05 08:23:37;;;;;;;2.20;2.02;;;;;;;11.26;100.00;101490.87;1715753;83;21596;-39
2022/10/05 08:26:59;;;;;;;3.55;2.15;;;;;;;11.36;100.00;101486.06;1715973;83;21608;-39
2022/10/05 08:29:37;;;;;;;2.15;1.67;;;;;;;11.43;100.00;101490.78;1683878;84;20983;-39
2022/10/05 08:32:25;;;;;;;5.75;2.00;;;;;;;11.50;100.00;101489.02;1683803;85;20956;-39
2022/10/05 08:35:14;;;;;;;2.22;2.00;;;;;;;11.60;100.00;101488.54;1706189;83;21009;-39
2022/10/05 08:37:41;;;;;;;4.20;2.15;;;;;;;11.67;100.00;101498.00;1716188;83;20938;-40
2022/10/05 08:40:56;;;;;;;3.87;2.00;;;;;;;11.80;100.00;101492.28;1716237;83;21744;-39
2022/10/05 08:44:05;;;;;;;15.65;2.37;;;;;;;11.88;100.00;101494.83;1710503;83;20944;-39
2022/10/05 08:47:04;;;;;;;7.05;2.60;;;;;;;12.11;100.00;101486.89;1704705;84;21547;-38
2022/10/05 08:49:59;;;;;;;4.78;1.90;;;;;;;12.36;100.00;101484.95;1705254;84;21048;-38
2022/10/05 08:52:39;;;;;;;4.85;2.37;;;;;;;12.47;100.00;101482.25;1705412;83;20909;-38
2022/10/05 08:55:32;;;;;;;4.10;3.17;;;;;;;12.49;99.22;101479.62;1705475;84;21223;-38
2022/10/05 08:58:23;;;;;;;2.45;2.35;;;;;;;12.73;97.05;101486.73;1705239;84;20933;-39
2022/10/05 09:01:10;;;;;;;3.40;2.80;;;;;;;13.07;98.57;101496.30;1705411;83;20905;-39
2022/10/05 09:04:00;;;;;;;2.95;2.75;;;;;;;13.39;93.84;101499.38;1705423;84;20961;-40
2022/10/05 09:07:01;;;;;;;3.15;2.60;;;;;;;13.37;90.79;101495.94;1704989;84;20953;-39
2022/10/05 09:10:09;;;;;;;6.58;2.50;;;;;;;13.48;91.67;101494.06;1705204;84;21057;-37
2022/10/05 09:13:11;;;;;;;7.85;2.77;;;;;;;13.82;90.67;101493.17;1705200;84;20897;-39
2022/10/05 09:16:24;;;;;;;7.03;2.60;;;;;;;14.00;88.27;101494.16;1705174;84;21565;-39
2022/10/05 09:18:59;;;;;;;2.90;2.70;;;;;;;14.27;88.02;101487.22;1705279;84;20966;-39
2022/10/05 09:21:55;;;;;;;3.42;2.92;;;;;;;14.52;83.70;101491.53;1676358;84;20948;-39
2022/10/05 09:24:57;;;;;;;5.30;2.87;;;;;;;14.32;83.38;101487.56;1705330;84;21149;-39
2022/10/05 09:27:37;;;;;;;6.17;2.52;;;;;;;13.83;86.34;101498.79;1705092;84;20913;-39
2022/10/05 09:30:40;;;;;;;2.85;2.58;;;;;;;13.44;89.42;101504.55;1705179;84;21005;-39
2022/10/05 09:33:28;;;;;;;4.10;2.22;;;;;;;13.40;92.15;101498.48;1689252;84;20929;-39
2022/10/05 09:36:42;;;;;;;3.02;2.37;;;;;;;13.53;93.72;101493.16;1702199;84;21044;-39
2022/10/05 09:39:30;;;;;;;2.70;2.45;;;;;;;13.74;91.99;101503.23;1705234;84;21221;-39
2022/10/05 09:42:24;;;;;;;3.58;3.02;;;;;;;13.83;89.50;101498.79;1705127;83;21036;-39
2022/10/05 09:45:24;;;;;;;2.55;2.35;;;;;;;13.84;88.40;101492.70;1705343;83;20917;-40
2022/10/05 09:48:13;;;;;;;3.35;2.17;;;;;;;13.97;83.68;101495.51;1713042;82;21007;-39
2022/10/05 09:51:34;;;;;;;4.30;2.02;;;;;;;13.97;81.64;101507.68;1713103;83;20992;-39
2022/10/05 09:54:33;;;;;;;5.80;2.00;;;;;;;13.98;82.14;101509.40;1713081;83;21257;-39
2022/10/05 09:57:32;;;;;;;7.90;1.98;;;;;;;14.07;80.32;101515.32;1712790;83;21047;-39
2022/10/05 10:00:25;;;;;;;5.37;1.80;;;;;;;13.99;79.90;101522.37;1712719;83;20957;-37
2022/10/05 10:03:46;;;;;;;6.12;2.70;;;;;;;13.82;80.52;101508.78;1713083;83;21576;-37
2022/10/05 10:06:40;;;;;;;3.47;2.58;;;;;;;13.61;82.61;101527.72;1713253;83;20941;-39
2022/10/05 10:09:51;;;;;;;16.75;2.67;;;;;;;13.32;83.03;101531.55;1712444;83;21380;-39
2022/10/05 10:12:39;;;;;;;26.85;3.15;;;;;;;13.33;85.37;101533.27;1712970;83;20937;-39
2022/10/05 10:15:29;;;;;;;31.97;3.87;;;;;;;13.58;84.17;101524.71;1712954;83;20924;-39
2022/10/05 10:18:28;;;;;;;5.03;2.27;;;;;;;13.90;80.46;101514.72;1713032;83;21002;-39
2022/10/05 10:21:15;;;;;;;42.75;3.00;;;;;;;14.00;80.35;101512.84;1712941;83;20901;-39
2022/10/05 10:23:57;;;;;;;6.78;1.95;;;;;;;14.30;79.63;101500.19;1713029;83;21530;-39
2022/10/05 10:27:01;;;;;;;7.55;2.52;;;;;;;14.59;77.81;101510.09;1712748;83;20992;-39
2022/10/05 10:29:58;;;;;;;7.22;3.02;;;;;;;14.72;74.07;101503.36;1712998;83;21481;-39
2022/10/05 10:32:58;;;;;;;14.23;3.50;;;;;;;14.52;71.32;101512.38;1681909;83;20940;-39
2022/10/05 10:35:47;;;;;;;2.30;2.10;;;;;;;14.39;72.80;101509.59;1713096;83;20913;-39
2022/10/05 10:38:34;;;;;;;4.92;2.27;;;;;;;14.30;73.13;101508.88;1712844;82;21088;-38
2022/10/05 10:41:28;;;;;;;78.70;4.92;;;;;;;14.19;74.52;101500.36;1713243;83;21052;-40
2022/10/05 10:44:49;;;;;;;98.65;4.72;;;;;;;14.20;76.88;101504.69;1717535;83;20991;-39
2022/10/05 10:47:39;;;;;;;31.73;3.12;;;;;;;14.36;75.89;101496.16;1697295;83;20911;-39
2022/10/05 10:50:34;;;;;;;19.02;2.05;;;;;;;14.42;77.35;101497.80;1723896;83;20960;-39
2022/10/05 10:53:41;;;;;;;28.27;2.90;;;;;;;14.66;73.72;101489.53;1724248;83;21839;-39
2022/10/05 10:56:31;;;;;;;18.07;2.13;;;;;;;14.77;74.76;101488.48;1724061;81;20995;-39
2022/10/05 10:59:32;;;;;;;16.07;2.75;;;;;;;14.81;74.35;101486.27;1724162;83;21279;-39
2022/10/05 11:02:26;;;;;;;11.75;1.60;;;;;;;14.74;74.43;101486.83;1723731;83;20951;-39
2022/10/05 11:05:43;;;;;;;19.65;2.15;;;;;;;14.76;70.64;101465.50;1724239;83;20987;-39
2022/10/05 11:09:07;;;;;;;5.45;1.55;;;;;;;14.70;70.32;101484.27;1669295;84;21285;-39
2022/10/05 11:12:09;;;;;;;25.95;2.22;;;;;;;14.71;69.88;101475.59;1723676;83;20960;-39
2022/10/05 11:14:57;;;;;;;5.58;2.00;;;;;;;14.77;69.25;101475.03;1724067;82;20919;-39
2022/10/05 11:17:56;;;;;;;4.70;1.40;;;;;;;14.74;69.27;101488.55;1723914;83;20928;-39
2022/10/05 11:20:37;;;;;;;5.45;1.70;;;;;;;14.72;67.94;101492.94;1724248;83;21002;-38
2022/10/05 11:23:33;;;;;;;11.95;1.77;;;;;;;14.72;68.27;101482.52;1695167;84;21314;-39
2022/10/05 11:26:20;;;;;;;5.03;1.52;;;;;;;14.76;67.94;101485.05;1723773;83;20995;-40
2022/10/05 11:29:29;;;;;;;10.55;1.60;;;;;;;14.83;68.09;101487.52;1723873;83;20864;-39
2022/10/05 11:32:43;;;;;;;9.85;1.50;;;;;;;14.91;65.81;101493.00;1723980;83;21070;-40
2022/10/05 11:35:52;;;;;;;10.68;1.30;;;;;;;14.97;64.25;101489.41;1723913;83;20968;-38
2022/10/05 11:38:40;;;;;;;3.60;1.25;;;;;;;14.93;63.97;101491.22;1695354;84;21334;-39
2022/10/05 11:41:56;;;;;;;7.65;1.42;;;;;;;14.79;64.81;101494.56;1723959;83;20956;-40
2022/10/05 11:45:11;;;;;;;3.02;1.10;;;;;;;14.70;66.54;101508.59;1717038;82;20924;-40
2022/10/05 11:48:27;;;;;;;5.78;1.90;;;;;;;14.46;64.76;101509.88;1708502;82;20999;-40
2022/10/05 11:51:23;;;;;;;3.30;1.65;;;;;;;14.16;66.82;101514.74;1695928;84;20976;-38
2022/10/05 11:54:05;;;;;;;4.92;2.00;;;;;;;13.98;68.17;101515.45;1695916;83;26704;-38
2022/10/05 11:56:39;;;;;;;3.20;1.57;;;;;;;13.89;69.62;101520.81;1694235;84;20972;-37
2022/10/05 11:59:36;;;;;;;9.38;2.30;;;;;;;13.92;70.97;101524.23;1695716;84;20924;-38
2022/10/05 12:02:43;;;;;;;8.18;2.10;;;;;;;14.12;71.34;101522.19;1695902;84;20979;-39
2022/10/05 12:05:37;;;;;;;2.75;2.37;;;;;;;14.34;69.16;101532.67;1695829;84;20972;-40
2022/10/05 12:08:38;;;;;;;10.68;2.42;;;;;;;14.53;68.93;101523.23;1696028;84;21242;-38
2022/10/05 12:11:37;;;;;;;6.75;2.50;;;;;;;14.74;69.76;101531.55;1669206;84;21011;-40
2022/10/05 12:14:19;;;;;;;6.80;3.25;;;;;;;15.08;68.70;101525.70;1695856;84;21012;-38
2022/10/05 12:16:57;;;;;;;6.40;2.65;;;;;;;15.26;68.63;101540.53;1696111;84;21004;-38
2022/10/05 12:19:35;;;;;;;10.80;3.47;;;;;;;15.23;69.90;101549.30;1695953;84;20968;-38
2022/10/05 12:22:16;;;;;;;6.85;2.10;;;;;;;14.99;69.18;101537.17;1666572;84;21879;-38
2022/10/05 12:24:51;;;;;;;12.18;2.47;;;;;;;14.77;66.75;101536.70;1692052;84;20925;-38
2022/10/05 12:27:21;;;;;;;8.60;2.60;;;;;;;14.53;68.28;101538.00;1695142;84;21063;-38
2022/10/05 12:29:57;;;;;;;12.60;3.20;;;;;;;14.45;67.91;101541.60;1666101;84;20965;-38
2022/10/05 12:32:38;;;;;;;2.33;2.08;;;;;;;14.52;69.53;101533.21;1696011;83;20969;-39
2022/10/05 12:35:26;;;;;;;5.92;2.42;;;;;;;14.61;68.09;101530.89;1695827;83;22455;-39
2022/10/05 12:38:10;;;;;;;13.65;2.35;;;;;;;14.55;67.70;101530.58;1666129;84;20995;-39
2022/10/05 12:40:52;;;;;;;13.90;2.60;;;;;;;14.59;68.20;101527.02;1696194;84;21423;-39
2022/10/05 12:43:27;;;;;;;8.05;1.90;;;;;;;14.53;66.33;101523.23;1695825;84;21593;-39
2022/10/05 12:46:23;;;;;;;9.28;2.47;;;;;;;14.39;69.23;101533.88;1654115;85;26709;-39
2022/10/05 12:49:22;;;;;;;3.50;2.45;;;;;;;14.37;68.24;101533.91;1671641;85;21118;-39
2022/10/05 12:51:59;;;;;;;9.65;2.90;;;;;;;14.34;69.00;101530.06;1671016;85;20958;-39
2022/10/05 12:54:47;;;;;;;25.43;2.60;;;;;;;14.33;71.09;101528.34;1671406;85;20957;-39
2022/10/05 12:57:35;;;;;;;2.70;2.50;;;;;;;14.45;71.62;101529.00;1671107;85;20989;-39
2022/10/05 13:00:12;;;;;;;28.40;2.80;;;;;;;14.39;71.33;101526.05;1671568;85;21010;-39
2022/10/05 13:02:46;;;;;;;8.58;2.62;;;;;;;14.19;71.78;101532.91;1671138;85;21158;-39
2022/10/05 13:05:33;;;;;;;8.73;2.45;;;;;;;13.98;72.98;101545.84;1671265;85;21577;-39
2022/10/05 13:08:16;;;;;;;6.65;2.20;;;;;;;13.79;73.71;101546.11;1671268;85;21536;-38